sensor_id;sensor_type;location;lat;lon;timestamp;P1;durP1;ratioP1;P2;durP2;ratioP2
73321;SDS011;61549;37.044;22.128;2022-10-17T00:00:25;3.53;;;2.83;;
73321;SDS011;61549;37.044;22.128;2022-10-17T00:02:53;3.30;;;2.72;;
73321;SDS011;61549;37.044;22.128;2022-10-17T00:05:20;3.75;;;2.85;;
73321;SDS011;61549;37.044;22.128;2022-10-17T00:07:46;3.40;;;3.08;;
73321;SDS011;61549;37.044;22.128;2022-10-17T00:10:18;4.38;;;3.10;;
73321;SDS011;61549;37.044;22.128;2022-10-17T00:12:44;3.83;;;2.67;;
73321;SDS011;61549;37.044;22.128;2022-10-17T00:15:13;3.92;;;2.85;;
73321;SDS011;61549;37.044;22.128;2022-10-17T00:17:41;4.65;;;2.90;;
73321;SDS011;61549;37.044;22.128;2022-10-17T00:20:07;4.05;;;2.35;;
73321;SDS011;61549;37.044;22.128;2022-10-17T00:22:33;3.40;;;2.60;;
73321;SDS011;61549;37.044;22.128;2022-10-17T00:24:58;6.25;;;2.60;;
73321;SDS011;61549;37.044;22.128;2022-10-17T00:27:24;3.22;;;2.65;;
73321;SDS011;61549;37.044;22.128;2022-10-17T00:29:50;3.55;;;2.72;;
73321;SDS011;61549;37.044;22.128;2022-10-17T00:32:17;3.92;;;2.80;;
73321;SDS011;61549;37.044;22.128;2022-10-17T00:34:43;3.15;;;2.63;;
73321;SDS011;61549;37.044;22.128;2022-10-17T00:37:10;3.25;;;2.60;;
73321;SDS011;61549;37.044;22.128;2022-10-17T00:39:36;4.72;;;2.70;;
73321;SDS011;61549;37.044;22.128;2022-10-17T00:42:02;4.78;;;2.45;;
73321;SDS011;61549;37.044;22.128;2022-10-17T00:46:57;4.03;;;2.58;;
73321;SDS011;61549;37.044;22.128;2022-10-17T00:49:26;3.92;;;2.67;;
73321;SDS011;61549;37.044;22.128;2022-10-17T00:51:56;2.95;;;2.40;;
73321;SDS011;61549;37.044;22.128;2022-10-17T00:54:45;3.03;;;2.40;;
73321;SDS011;61549;37.044;22.128;2022-10-17T00:57:15;3.85;;;2.55;;
73321;SDS011;61549;37.044;22.128;2022-10-17T00:59:42;2.90;;;2.40;;
73321;SDS011;61549;37.044;22.128;2022-10-17T01:02:14;3.30;;;2.45;;
73321;SDS011;61549;37.044;22.128;2022-10-17T01:04:45;3.00;;;2.28;;
73321;SDS011;61549;37.044;22.128;2022-10-17T01:07:14;3.85;;;2.45;;
73321;SDS011;61549;37.044;22.128;2022-10-17T01:09:40;4.55;;;2.47;;
73321;SDS011;61549;37.044;22.128;2022-10-17T01:12:17;3.33;;;2.40;;
73321;SDS011;61549;37.044;22.128;2022-10-17T01:15:11;2.47;;;2.28;;
73321;SDS011;61549;37.044;22.128;2022-10-17T01:18:02;3.13;;;2.30;;
73321;SDS011;61549;37.044;22.128;2022-10-17T01:20:52;2.40;;;2.20;;
73321;SDS011;61549;37.044;22.128;2022-10-17T01:31:26;2.40;;;2.20;;
73321;SDS011;61549;37.044;22.128;2022-10-17T01:34:03;3.00;;;2.40;;
73321;SDS011;61549;37.044;22.128;2022-10-17T01:42:41;2.90;;;2.60;;
73321;SDS011;61549;37.044;22.128;2022-10-17T01:48:04;2.90;;;2.60;;
73321;SDS011;61549;37.044;22.128;2022-10-17T01:50:35;4.68;;;2.60;;
73321;SDS011;61549;37.044;22.128;2022-10-17T01:53:07;3.65;;;2.72;;
73321;SDS011;61549;37.044;22.128;2022-10-17T01:55:40;3.70;;;2.80;;
73321;SDS011;61549;37.044;22.128;2022-10-17T01:58:15;2.85;;;2.60;;
73321;SDS011;61549;37.044;22.128;2022-10-17T02:00:43;3.38;;;2.83;;
73321;SDS011;61549;37.044;22.128;2022-10-17T02:03:15;3.00;;;2.70;;
73321;SDS011;61549;37.044;22.128;2022-10-17T02:05:43;3.92;;;2.60;;
73321;SDS011;61549;37.044;22.128;2022-10-17T02:08:10;3.05;;;2.65;;
73321;SDS011;61549;37.044;22.128;2022-10-17T02:10:45;6.05;;;2.70;;
73321;SDS011;61549;37.044;22.128;2022-10-17T02:13:21;3.90;;;2.70;;
73321;SDS011;61549;37.044;22.128;2022-10-17T02:27:34;5.07;;;2.65;;
73321;SDS011;61549;37.044;22.128;2022-10-17T02:30:56;3.50;;;2.60;;
73321;SDS011;61549;37.044;22.128;2022-10-17T02:33:11;3.13;;;2.60;;
73321;SDS011;61549;37.044;22.128;2022-10-17T02:35:44;4.25;;;2.75;;
73321;SDS011;61549;37.044;22.128;2022-10-17T02:38:13;3.20;;;2.65;;
73321;SDS011;61549;37.044;22.128;2022-10-17T02:40:42;3.63;;;3.00;;
73321;SDS011;61549;37.044;22.128;2022-10-17T02:43:09;3.65;;;2.95;;
73321;SDS011;61549;37.044;22.128;2022-10-17T02:45:36;3.90;;;2.85;;
73321;SDS011;61549;37.044;22.128;2022-10-17T02:48:05;4.13;;;2.55;;
73321;SDS011;61549;37.044;22.128;2022-10-17T02:53:33;4.22;;;3.10;;
73321;SDS011;61549;37.044;22.128;2022-10-17T02:56:02;4.93;;;2.70;;
73321;SDS011;61549;37.044;22.128;2022-10-17T02:58:32;5.07;;;2.80;;
73321;SDS011;61549;37.044;22.128;2022-10-17T03:01:00;4.63;;;2.75;;
73321;SDS011;61549;37.044;22.128;2022-10-17T03:03:29;4.15;;;3.10;;
73321;SDS011;61549;37.044;22.128;2022-10-17T03:05:55;4.18;;;3.00;;
73321;SDS011;61549;37.044;22.128;2022-10-17T03:08:22;3.72;;;2.80;;
73321;SDS011;61549;37.044;22.128;2022-10-17T03:10:48;4.07;;;2.85;;
73321;SDS011;61549;37.044;22.128;2022-10-17T03:13:15;5.55;;;2.80;;
73321;SDS011;61549;37.044;22.128;2022-10-17T03:18:11;3.72;;;2.80;;
73321;SDS011;61549;37.044;22.128;2022-10-17T03:20:37;5.35;;;2.60;;
73321;SDS011;61549;37.044;22.128;2022-10-17T03:23:03;3.38;;;2.50;;
73321;SDS011;61549;37.044;22.128;2022-10-17T03:25:29;3.05;;;2.70;;
73321;SDS011;61549;37.044;22.128;2022-10-17T03:27:56;3.05;;;2.70;;
73321;SDS011;61549;37.044;22.128;2022-10-17T03:30:24;3.67;;;2.70;;
73321;SDS011;61549;37.044;22.128;2022-10-17T03:32:50;4.18;;;2.97;;
73321;SDS011;61549;37.044;22.128;2022-10-17T03:35:16;3.30;;;3.00;;
73321;SDS011;61549;37.044;22.128;2022-10-17T03:37:42;3.33;;;2.67;;
73321;SDS011;61549;37.044;22.128;2022-10-17T03:40:08;3.47;;;2.70;;
73321;SDS011;61549;37.044;22.128;2022-10-17T03:42:34;4.15;;;2.60;;
73321;SDS011;61549;37.044;22.128;2022-10-17T03:45:00;3.53;;;2.72;;
73321;SDS011;61549;37.044;22.128;2022-10-17T03:47:26;2.95;;;2.50;;
73321;SDS011;61549;37.044;22.128;2022-10-17T03:49:52;3.67;;;2.70;;
73321;SDS011;61549;37.044;22.128;2022-10-17T03:54:51;3.22;;;2.58;;
73321;SDS011;61549;37.044;22.128;2022-10-17T03:57:18;3.38;;;3.00;;
73321;SDS011;61549;37.044;22.128;2022-10-17T03:59:44;4.10;;;2.60;;
73321;SDS011;61549;37.044;22.128;2022-10-17T04:02:09;3.53;;;2.75;;
73321;SDS011;61549;37.044;22.128;2022-10-17T04:04:35;3.30;;;2.70;;
73321;SDS011;61549;37.044;22.128;2022-10-17T04:07:01;4.13;;;2.75;;
73321;SDS011;61549;37.044;22.128;2022-10-17T04:09:27;3.78;;;2.75;;
73321;SDS011;61549;37.044;22.128;2022-10-17T04:11:53;3.60;;;2.60;;
73321;SDS011;61549;37.044;22.128;2022-10-17T04:14:20;2.90;;;2.60;;
73321;SDS011;61549;37.044;22.128;2022-10-17T04:16:46;4.30;;;2.88;;
73321;SDS011;61549;37.044;22.128;2022-10-17T04:19:12;3.58;;;2.90;;
73321;SDS011;61549;37.044;22.128;2022-10-17T04:21:38;4.70;;;2.90;;
73321;SDS011;61549;37.044;22.128;2022-10-17T04:24:04;3.00;;;2.50;;
73321;SDS011;61549;37.044;22.128;2022-10-17T04:26:30;5.57;;;2.80;;
73321;SDS011;61549;37.044;22.128;2022-10-17T04:28:55;3.78;;;2.40;;
73321;SDS011;61549;37.044;22.128;2022-10-17T04:31:21;3.85;;;2.42;;
73321;SDS011;61549;37.044;22.128;2022-10-17T04:33:48;3.20;;;2.53;;
73321;SDS011;61549;37.044;22.128;2022-10-17T04:36:15;3.75;;;2.45;;
73321;SDS011;61549;37.044;22.128;2022-10-17T04:38:43;3.97;;;2.70;;
73321;SDS011;61549;37.044;22.128;2022-10-17T04:41:10;4.25;;;2.70;;
73321;SDS011;61549;37.044;22.128;2022-10-17T04:43:38;3.25;;;2.75;;
73321;SDS011;61549;37.044;22.128;2022-10-17T04:46:05;3.25;;;2.85;;
73321;SDS011;61549;37.044;22.128;2022-10-17T04:48:54;3.13;;;2.80;;
73321;SDS011;61549;37.044;22.128;2022-10-17T04:51:20;3.35;;;3.05;;
73321;SDS011;61549;37.044;22.128;2022-10-17T04:53:46;3.38;;;2.90;;
73321;SDS011;61549;37.044;22.128;2022-10-17T04:56:13;4.60;;;3.00;;
73321;SDS011;61549;37.044;22.128;2022-10-17T04:58:41;5.07;;;3.20;;
73321;SDS011;61549;37.044;22.128;2022-10-17T05:01:12;4.03;;;2.65;;
73321;SDS011;61549;37.044;22.128;2022-10-17T05:03:40;4.28;;;2.80;;
73321;SDS011;61549;37.044;22.128;2022-10-17T05:06:09;3.88;;;2.88;;
73321;SDS011;61549;37.044;22.128;2022-10-17T05:08:37;4.30;;;3.10;;
73321;SDS011;61549;37.044;22.128;2022-10-17T05:11:04;3.22;;;2.67;;
73321;SDS011;61549;37.044;22.128;2022-10-17T05:13:39;4.28;;;2.95;;
73321;SDS011;61549;37.044;22.128;2022-10-17T05:16:05;4.55;;;2.95;;
73321;SDS011;61549;37.044;22.128;2022-10-17T05:18:31;4.63;;;3.28;;
73321;SDS011;61549;37.044;22.128;2022-10-17T05:20:56;3.33;;;2.90;;
73321;SDS011;61549;37.044;22.128;2022-10-17T05:23:22;3.83;;;2.90;;
73321;SDS011;61549;37.044;22.128;2022-10-17T05:25:52;4.60;;;3.00;;
73321;SDS011;61549;37.044;22.128;2022-10-17T05:28:19;3.25;;;2.80;;
73321;SDS011;61549;37.044;22.128;2022-10-17T05:30:45;4.28;;;2.63;;
73321;SDS011;61549;37.044;22.128;2022-10-17T05:33:11;3.00;;;2.70;;
73321;SDS011;61549;37.044;22.128;2022-10-17T05:35:37;3.58;;;2.60;;
73321;SDS011;61549;37.044;22.128;2022-10-17T05:38:03;4.25;;;2.88;;
73321;SDS011;61549;37.044;22.128;2022-10-17T05:40:29;3.30;;;2.90;;
73321;SDS011;61549;37.044;22.128;2022-10-17T05:42:54;3.17;;;2.88;;
73321;SDS011;61549;37.044;22.128;2022-10-17T05:45:20;3.95;;;2.63;;
73321;SDS011;61549;37.044;22.128;2022-10-17T05:47:46;3.33;;;2.63;;
73321;SDS011;61549;37.044;22.128;2022-10-17T05:50:12;3.35;;;2.40;;
73321;SDS011;61549;37.044;22.128;2022-10-17T05:52:38;2.65;;;2.30;;
73321;SDS011;61549;37.044;22.128;2022-10-17T05:55:04;3.20;;;2.40;;
73321;SDS011;61549;37.044;22.128;2022-10-17T05:57:30;4.45;;;2.20;;
73321;SDS011;61549;37.044;22.128;2022-10-17T05:59:56;3.47;;;2.20;;
73321;SDS011;61549;37.044;22.128;2022-10-17T06:02:22;3.05;;;2.30;;
73321;SDS011;61549;37.044;22.128;2022-10-17T06:04:48;4.05;;;2.58;;
73321;SDS011;61549;37.044;22.128;2022-10-17T06:07:15;2.70;;;2.30;;
73321;SDS011;61549;37.044;22.128;2022-10-17T06:09:41;2.63;;;2.40;;
73321;SDS011;61549;37.044;22.128;2022-10-17T06:12:07;3.10;;;2.50;;
73321;SDS011;61549;37.044;22.128;2022-10-17T06:14:33;4.30;;;2.72;;
73321;SDS011;61549;37.044;22.128;2022-10-17T06:17:00;2.95;;;2.40;;
73321;SDS011;61549;37.044;22.128;2022-10-17T06:19:26;4.93;;;2.97;;
73321;SDS011;61549;37.044;22.128;2022-10-17T06:21:52;4.97;;;2.80;;
73321;SDS011;61549;37.044;22.128;2022-10-17T06:24:17;4.63;;;2.95;;
73321;SDS011;61549;37.044;22.128;2022-10-17T06:26:48;4.45;;;3.10;;
73321;SDS011;61549;37.044;22.128;2022-10-17T06:29:14;4.25;;;2.70;;
73321;SDS011;61549;37.044;22.128;2022-10-17T06:31:40;4.43;;;2.60;;
73321;SDS011;61549;37.044;22.128;2022-10-17T06:34:05;3.17;;;2.40;;
73321;SDS011;61549;37.044;22.128;2022-10-17T06:36:31;2.90;;;2.60;;
73321;SDS011;61549;37.044;22.128;2022-10-17T06:38:57;8.50;;;5.25;;
73321;SDS011;61549;37.044;22.128;2022-10-17T06:41:23;4.00;;;2.58;;
73321;SDS011;61549;37.044;22.128;2022-10-17T06:43:49;4.15;;;2.38;;
73321;SDS011;61549;37.044;22.128;2022-10-17T06:46:16;3.08;;;2.13;;
73321;SDS011;61549;37.044;22.128;2022-10-17T06:48:43;2.65;;;2.33;;
73321;SDS011;61549;37.044;22.128;2022-10-17T06:51:09;4.43;;;2.42;;
73321;SDS011;61549;37.044;22.128;2022-10-17T06:53:36;4.40;;;2.33;;
73321;SDS011;61549;37.044;22.128;2022-10-17T06:56:04;4.60;;;2.55;;
73321;SDS011;61549;37.044;22.128;2022-10-17T06:58:37;2.92;;;2.63;;
73321;SDS011;61549;37.044;22.128;2022-10-17T07:01:04;3.15;;;2.58;;
73321;SDS011;61549;37.044;22.128;2022-10-17T07:03:32;5.70;;;3.83;;
73321;SDS011;61549;37.044;22.128;2022-10-17T07:05:58;3.72;;;3.10;;
73321;SDS011;61549;37.044;22.128;2022-10-17T07:08:26;3.47;;;2.90;;
73321;SDS011;61549;37.044;22.128;2022-10-17T07:10:52;3.72;;;2.10;;
73321;SDS011;61549;37.044;22.128;2022-10-17T07:13:18;2.30;;;2.10;;
73321;SDS011;61549;37.044;22.128;2022-10-17T07:15:44;3.90;;;2.70;;
73321;SDS011;61549;37.044;22.128;2022-10-17T07:18:11;3.00;;;2.20;;
73321;SDS011;61549;37.044;22.128;2022-10-17T07:20:38;4.00;;;2.55;;
73321;SDS011;61549;37.044;22.128;2022-10-17T07:23:04;2.78;;;2.33;;
73321;SDS011;61549;37.044;22.128;2022-10-17T07:25:30;2.72;;;2.25;;
73321;SDS011;61549;37.044;22.128;2022-10-17T07:27:56;2.92;;;2.38;;
73321;SDS011;61549;37.044;22.128;2022-10-17T07:30:22;2.97;;;2.30;;
73321;SDS011;61549;37.044;22.128;2022-10-17T07:32:52;2.90;;;2.30;;
73321;SDS011;61549;37.044;22.128;2022-10-17T07:35:19;3.25;;;2.05;;
73321;SDS011;61549;37.044;22.128;2022-10-17T07:37:45;2.50;;;2.00;;
73321;SDS011;61549;37.044;22.128;2022-10-17T07:40:11;2.03;;;1.83;;
73321;SDS011;61549;37.044;22.128;2022-10-17T07:42:38;4.10;;;2.00;;
73321;SDS011;61549;37.044;22.128;2022-10-17T07:45:04;2.33;;;2.05;;
73321;SDS011;61549;37.044;22.128;2022-10-17T07:47:30;2.55;;;2.28;;
73321;SDS011;61549;37.044;22.128;2022-10-17T07:49:59;4.28;;;2.70;;
73321;SDS011;61549;37.044;22.128;2022-10-17T07:52:27;2.53;;;1.70;;
73321;SDS011;61549;37.044;22.128;2022-10-17T07:54:52;3.60;;;1.90;;
73321;SDS011;61549;37.044;22.128;2022-10-17T07:57:18;3.67;;;2.00;;
73321;SDS011;61549;37.044;22.128;2022-10-17T07:59:44;2.15;;;1.98;;
73321;SDS011;61549;37.044;22.128;2022-10-17T08:02:19;3.78;;;2.00;;
73321;SDS011;61549;37.044;22.128;2022-10-17T08:04:47;2.17;;;1.73;;
73321;SDS011;61549;37.044;22.128;2022-10-17T08:07:13;3.13;;;2.30;;
73321;SDS011;61549;37.044;22.128;2022-10-17T08:09:40;3.28;;;2.10;;
73321;SDS011;61549;37.044;22.128;2022-10-17T08:12:07;2.30;;;2.00;;
73321;SDS011;61549;37.044;22.128;2022-10-17T08:14:33;2.40;;;2.00;;
73321;SDS011;61549;37.044;22.128;2022-10-17T08:16:58;2.78;;;1.98;;
73321;SDS011;61549;37.044;22.128;2022-10-17T08:19:24;2.75;;;2.28;;
73321;SDS011;61549;37.044;22.128;2022-10-17T08:21:50;2.70;;;2.13;;
73321;SDS011;61549;37.044;22.128;2022-10-17T08:24:18;4.78;;;2.08;;
73321;SDS011;61549;37.044;22.128;2022-10-17T08:26:45;3.13;;;1.90;;
73321;SDS011;61549;37.044;22.128;2022-10-17T08:29:12;2.75;;;1.98;;
73321;SDS011;61549;37.044;22.128;2022-10-17T08:31:38;2.70;;;2.10;;
73321;SDS011;61549;37.044;22.128;2022-10-17T08:34:04;2.83;;;2.05;;
73321;SDS011;61549;37.044;22.128;2022-10-17T08:36:30;2.83;;;2.10;;
73321;SDS011;61549;37.044;22.128;2022-10-17T08:38:56;2.97;;;1.95;;
73321;SDS011;61549;37.044;22.128;2022-10-17T08:44:13;2.30;;;1.90;;
73321;SDS011;61549;37.044;22.128;2022-10-17T08:46:54;2.83;;;1.95;;
73321;SDS011;61549;37.044;22.128;2022-10-17T08:52:00;2.55;;;1.80;;
73321;SDS011;61549;37.044;22.128;2022-10-17T08:54:37;3.47;;;2.10;;
73321;SDS011;61549;37.044;22.128;2022-10-17T08:57:16;2.78;;;2.00;;
73321;SDS011;61549;37.044;22.128;2022-10-17T08:59:43;3.17;;;2.25;;
73321;SDS011;61549;37.044;22.128;2022-10-17T09:07:34;2.03;;;1.77;;
73321;SDS011;61549;37.044;22.128;2022-10-17T09:10:24;2.20;;;1.98;;
73321;SDS011;61549;37.044;22.128;2022-10-17T09:13:18;2.53;;;1.77;;
73321;SDS011;61549;37.044;22.128;2022-10-17T09:18:40;2.25;;;1.90;;
73321;SDS011;61549;37.044;22.128;2022-10-17T09:21:18;2.35;;;1.92;;
73321;SDS011;61549;37.044;22.128;2022-10-17T09:23:53;3.88;;;1.60;;
73321;SDS011;61549;37.044;22.128;2022-10-17T09:26:23;1.70;;;1.60;;
73321;SDS011;61549;37.044;22.128;2022-10-17T09:28:51;2.00;;;1.80;;
73321;SDS011;61549;37.044;22.128;2022-10-17T09:31:24;1.98;;;1.70;;
73321;SDS011;61549;37.044;22.128;2022-10-17T09:33:54;2.25;;;2.05;;
73321;SDS011;61549;37.044;22.128;2022-10-17T09:36:23;2.05;;;1.73;;
73321;SDS011;61549;37.044;22.128;2022-10-17T09:38:59;2.92;;;2.20;;
73321;SDS011;61549;37.044;22.128;2022-10-17T09:41:33;4.88;;;2.10;;
73321;SDS011;61549;37.044;22.128;2022-10-17T09:44:15;2.10;;;1.90;;
73321;SDS011;61549;37.044;22.128;2022-10-17T09:49:51;2.20;;;2.00;;
73321;SDS011;61549;37.044;22.128;2022-10-17T09:52:25;2.60;;;2.13;;
73321;SDS011;61549;37.044;22.128;2022-10-17T09:57:24;3.42;;;2.30;;
73321;SDS011;61549;37.044;22.128;2022-10-17T10:00:03;2.95;;;2.15;;
73321;SDS011;61549;37.044;22.128;2022-10-17T10:02:30;3.58;;;2.28;;
73321;SDS011;61549;37.044;22.128;2022-10-17T10:05:02;4.78;;;2.10;;
73321;SDS011;61549;37.044;22.128;2022-10-17T10:07:42;2.78;;;2.47;;
73321;SDS011;61549;37.044;22.128;2022-10-17T10:10:25;2.97;;;2.03;;
73321;SDS011;61549;37.044;22.128;2022-10-17T10:13:02;3.85;;;2.17;;
73321;SDS011;61549;37.044;22.128;2022-10-17T10:15:37;2.72;;;2.30;;
73321;SDS011;61549;37.044;22.128;2022-10-17T10:21:16;3.42;;;2.50;;
73321;SDS011;61549;37.044;22.128;2022-10-17T10:23:45;2.40;;;2.08;;
73321;SDS011;61549;37.044;22.128;2022-10-17T10:26:34;2.30;;;2.10;;
73321;SDS011;61549;37.044;22.128;2022-10-17T10:29:02;3.15;;;2.30;;
73321;SDS011;61549;37.044;22.128;2022-10-17T10:31:49;2.83;;;2.15;;
73321;SDS011;61549;37.044;22.128;2022-10-17T10:34:26;2.22;;;2.03;;
73321;SDS011;61549;37.044;22.128;2022-10-17T10:36:55;3.65;;;2.20;;
73321;SDS011;61549;37.044;22.128;2022-10-17T10:39:41;2.65;;;2.20;;
73321;SDS011;61549;37.044;22.128;2022-10-17T10:42:23;3.10;;;2.10;;
73321;SDS011;61549;37.044;22.128;2022-10-17T10:45:01;2.65;;;2.13;;
73321;SDS011;61549;37.044;22.128;2022-10-17T10:47:48;3.83;;;2.47;;
73321;SDS011;61549;37.044;22.128;2022-10-17T10:55:40;3.70;;;2.45;;
73321;SDS011;61549;37.044;22.128;2022-10-17T11:01:13;5.18;;;2.38;;
73321;SDS011;61549;37.044;22.128;2022-10-17T11:03:54;3.30;;;2.17;;
73321;SDS011;61549;37.044;22.128;2022-10-17T11:06:29;2.78;;;2.10;;
73321;SDS011;61549;37.044;22.128;2022-10-17T11:09:12;2.90;;;1.90;;
73321;SDS011;61549;37.044;22.128;2022-10-17T11:11:53;2.47;;;1.90;;
73321;SDS011;61549;37.044;22.128;2022-10-17T11:14:43;3.05;;;1.90;;
73321;SDS011;61549;37.044;22.128;2022-10-17T11:22:41;2.28;;;1.73;;
73321;SDS011;61549;37.044;22.128;2022-10-17T11:25:32;3.45;;;2.10;;
73321;SDS011;61549;37.044;22.128;2022-10-17T11:28:01;2.35;;;2.15;;
73321;SDS011;61549;37.044;22.128;2022-10-17T11:30:32;2.75;;;2.15;;
73321;SDS011;61549;37.044;22.128;2022-10-17T11:33:06;2.90;;;2.13;;
73321;SDS011;61549;37.044;22.128;2022-10-17T11:35:37;3.85;;;2.45;;
73321;SDS011;61549;37.044;22.128;2022-10-17T11:40:58;2.42;;;2.10;;
73321;SDS011;61549;37.044;22.128;2022-10-17T11:46:00;4.57;;;2.03;;
73321;SDS011;61549;37.044;22.128;2022-10-17T11:48:33;2.72;;;1.80;;
73321;SDS011;61549;37.044;22.128;2022-10-17T11:51:20;3.47;;;1.90;;
73321;SDS011;61549;37.044;22.128;2022-10-17T11:54:07;4.53;;;2.40;;
73321;SDS011;61549;37.044;22.128;2022-10-17T12:01:57;4.00;;;2.20;;
73321;SDS011;61549;37.044;22.128;2022-10-17T12:07:22;2.42;;;2.03;;
73321;SDS011;61549;37.044;22.128;2022-10-17T12:12:43;1.98;;;1.70;;
73321;SDS011;61549;37.044;22.128;2022-10-17T12:17:44;2.38;;;1.90;;
73321;SDS011;61549;37.044;22.128;2022-10-17T12:22:53;2.33;;;1.73;;
73321;SDS011;61549;37.044;22.128;2022-10-17T12:25:33;3.75;;;1.90;;
73321;SDS011;61549;37.044;22.128;2022-10-17T12:30:30;2.47;;;2.00;;
73321;SDS011;61549;37.044;22.128;2022-10-17T12:32:58;2.15;;;1.88;;
73321;SDS011;61549;37.044;22.128;2022-10-17T12:35:46;2.30;;;2.10;;
73321;SDS011;61549;37.044;22.128;2022-10-17T12:38:18;2.22;;;1.90;;
73321;SDS011;61549;37.044;22.128;2022-10-17T12:40:46;2.28;;;2.00;;
73321;SDS011;61549;37.044;22.128;2022-10-17T12:45:58;2.33;;;1.80;;
73321;SDS011;61549;37.044;22.128;2022-10-17T12:51:10;2.65;;;1.80;;
73321;SDS011;61549;37.044;22.128;2022-10-17T12:59:24;2.88;;;1.77;;
73321;SDS011;61549;37.044;22.128;2022-10-17T13:01:54;2.42;;;1.80;;
73321;SDS011;61549;37.044;22.128;2022-10-17T13:04:24;2.67;;;1.80;;
73321;SDS011;61549;37.044;22.128;2022-10-17T13:06:53;2.25;;;1.77;;
73321;SDS011;61549;37.044;22.128;2022-10-17T13:09:32;3.35;;;1.90;;
73321;SDS011;61549;37.044;22.128;2022-10-17T13:12:03;2.53;;;2.10;;
73321;SDS011;61549;37.044;22.128;2022-10-17T13:14:44;2.80;;;1.70;;
73321;SDS011;61549;37.044;22.128;2022-10-17T13:17:24;2.10;;;1.90;;
73321;SDS011;61549;37.044;22.128;2022-10-17T13:19:53;1.90;;;1.70;;
73321;SDS011;61549;37.044;22.128;2022-10-17T13:22:27;2.42;;;1.70;;
73321;SDS011;61549;37.044;22.128;2022-10-17T13:25:05;2.00;;;1.63;;
73321;SDS011;61549;37.044;22.128;2022-10-17T13:28:02;2.05;;;1.70;;
73321;SDS011;61549;37.044;22.128;2022-10-17T13:30:36;3.35;;;1.80;;
73321;SDS011;61549;37.044;22.128;2022-10-17T13:33:02;2.83;;;1.65;;
73321;SDS011;61549;37.044;22.128;2022-10-17T13:35:40;1.95;;;1.75;;
73321;SDS011;61549;37.044;22.128;2022-10-17T13:38:06;1.98;;;1.60;;
73321;SDS011;61549;37.044;22.128;2022-10-17T13:40:38;1.95;;;1.70;;
73321;SDS011;61549;37.044;22.128;2022-10-17T13:43:16;2.10;;;1.73;;
73321;SDS011;61549;37.044;22.128;2022-10-17T13:45:51;1.95;;;1.75;;
73321;SDS011;61549;37.044;22.128;2022-10-17T13:48:24;1.90;;;1.70;;
73321;SDS011;61549;37.044;22.128;2022-10-17T13:50:53;2.72;;;1.90;;
73321;SDS011;61549;37.044;22.128;2022-10-17T13:58:42;2.53;;;1.80;;
73321;SDS011;61549;37.044;22.128;2022-10-17T14:01:11;2.17;;;1.75;;
73321;SDS011;61549;37.044;22.128;2022-10-17T14:03:42;3.15;;;2.13;;
73321;SDS011;61549;37.044;22.128;2022-10-17T14:09:02;2.63;;;1.90;;
73321;SDS011;61549;37.044;22.128;2022-10-17T14:14:02;2.55;;;1.98;;
73321;SDS011;61549;37.044;22.128;2022-10-17T14:16:36;3.05;;;1.90;;
73321;SDS011;61549;37.044;22.128;2022-10-17T14:19:12;2.67;;;2.10;;
73321;SDS011;61549;37.044;22.128;2022-10-17T14:21:51;2.63;;;1.90;;
73321;SDS011;61549;37.044;22.128;2022-10-17T14:26:53;2.05;;;1.80;;
73321;SDS011;61549;37.044;22.128;2022-10-17T14:29:49;4.45;;;3.22;;
73321;SDS011;61549;37.044;22.128;2022-10-17T14:32:16;3.50;;;2.25;;
73321;SDS011;61549;37.044;22.128;2022-10-17T14:34:43;3.20;;;2.08;;
73321;SDS011;61549;37.044;22.128;2022-10-17T14:40:13;1.88;;;1.50;;
73321;SDS011;61549;37.044;22.128;2022-10-17T14:42:44;3.35;;;2.10;;
73321;SDS011;61549;37.044;22.128;2022-10-17T14:45:12;2.60;;;2.10;;
73321;SDS011;61549;37.044;22.128;2022-10-17T14:48:11;3.90;;;2.20;;
73321;SDS011;61549;37.044;22.128;2022-10-17T14:50:40;2.15;;;1.90;;
73321;SDS011;61549;37.044;22.128;2022-10-17T14:55:37;1.90;;;1.70;;
73321;SDS011;61549;37.044;22.128;2022-10-17T14:58:17;1.45;;;0.85;;
73321;SDS011;61549;37.044;22.128;2022-10-17T15:00:48;2.17;;;1.10;;
73321;SDS011;61549;37.044;22.128;2022-10-17T15:03:14;2.60;;;1.25;;
73321;SDS011;61549;37.044;22.128;2022-10-17T15:05:40;2.38;;;1.70;;
73321;SDS011;61549;37.044;22.128;2022-10-17T15:08:12;2.50;;;1.30;;
73321;SDS011;61549;37.044;22.128;2022-10-17T15:10:40;1.50;;;1.00;;
73321;SDS011;61549;37.044;22.128;2022-10-17T15:13:07;2.08;;;1.13;;
73321;SDS011;61549;37.044;22.128;2022-10-17T15:15:34;3.22;;;1.20;;
73321;SDS011;61549;37.044;22.128;2022-10-17T15:18:01;2.20;;;1.10;;
73321;SDS011;61549;37.044;22.128;2022-10-17T15:20:28;2.45;;;1.17;;
73321;SDS011;61549;37.044;22.128;2022-10-17T15:22:55;1.38;;;1.00;;
73321;SDS011;61549;37.044;22.128;2022-10-17T15:25:24;3.70;;;1.25;;
73321;SDS011;61549;37.044;22.128;2022-10-17T15:27:51;3.08;;;1.00;;
73321;SDS011;61549;37.044;22.128;2022-10-17T15:30:22;3.00;;;0.90;;
73321;SDS011;61549;37.044;22.128;2022-10-17T15:32:52;1.65;;;0.95;;
73321;SDS011;61549;37.044;22.128;2022-10-17T15:35:19;3.17;;;1.10;;
73321;SDS011;61549;37.044;22.128;2022-10-17T15:37:45;3.10;;;1.40;;
73321;SDS011;61549;37.044;22.128;2022-10-17T15:40:12;3.65;;;1.10;;
73321;SDS011;61549;37.044;22.128;2022-10-17T15:42:41;3.78;;;1.10;;
73321;SDS011;61549;37.044;22.128;2022-10-17T15:45:08;1.80;;;1.10;;
73321;SDS011;61549;37.044;22.128;2022-10-17T15:47:39;1.92;;;0.95;;
73321;SDS011;61549;37.044;22.128;2022-10-17T15:50:25;1.65;;;1.00;;
73321;SDS011;61549;37.044;22.128;2022-10-17T15:52:53;0.93;;;0.88;;
73321;SDS011;61549;37.044;22.128;2022-10-17T15:55:18;2.78;;;1.17;;
73321;SDS011;61549;37.044;22.128;2022-10-17T15:57:46;1.75;;;1.00;;
73321;SDS011;61549;37.044;22.128;2022-10-17T16:00:17;1.50;;;0.90;;
73321;SDS011;61549;37.044;22.128;2022-10-17T16:02:45;1.08;;;0.98;;
73321;SDS011;61549;37.044;22.128;2022-10-17T16:05:15;3.13;;;1.13;;
73321;SDS011;61549;37.044;22.128;2022-10-17T16:07:43;1.40;;;1.20;;
73321;SDS011;61549;37.044;22.128;2022-10-17T16:10:14;1.70;;;1.00;;
73321;SDS011;61549;37.044;22.128;2022-10-17T16:12:41;1.67;;;1.33;;
73321;SDS011;61549;37.044;22.128;2022-10-17T16:15:16;2.15;;;1.20;;
73321;SDS011;61549;37.044;22.128;2022-10-17T16:17:53;3.28;;;1.10;;
73321;SDS011;61549;37.044;22.128;2022-10-17T16:20:21;2.55;;;1.20;;
73321;SDS011;61549;37.044;22.128;2022-10-17T16:22:49;1.83;;;1.00;;
73321;SDS011;61549;37.044;22.128;2022-10-17T16:25:19;2.55;;;1.10;;
73321;SDS011;61549;37.044;22.128;2022-10-17T16:27:49;1.98;;;1.40;;
73321;SDS011;61549;37.044;22.128;2022-10-17T16:30:18;1.75;;;1.40;;
73321;SDS011;61549;37.044;22.128;2022-10-17T16:32:45;1.88;;;1.33;;
73321;SDS011;61549;37.044;22.128;2022-10-17T16:35:32;1.95;;;1.10;;
73321;SDS011;61549;37.044;22.128;2022-10-17T16:37:57;2.13;;;1.30;;
73321;SDS011;61549;37.044;22.128;2022-10-17T16:40:23;2.35;;;1.30;;
73321;SDS011;61549;37.044;22.128;2022-10-17T16:42:49;1.35;;;1.10;;
73321;SDS011;61549;37.044;22.128;2022-10-17T16:45:19;2.45;;;1.20;;
73321;SDS011;61549;37.044;22.128;2022-10-17T16:47:46;1.70;;;1.10;;
73321;SDS011;61549;37.044;22.128;2022-10-17T16:50:13;2.50;;;1.02;;
73321;SDS011;61549;37.044;22.128;2022-10-17T16:52:40;2.45;;;1.20;;
73321;SDS011;61549;37.044;22.128;2022-10-17T16:55:06;2.65;;;1.05;;
73321;SDS011;61549;37.044;22.128;2022-10-17T16:57:33;1.58;;;1.05;;
73321;SDS011;61549;37.044;22.128;2022-10-17T16:59:59;1.55;;;1.17;;